sensor_id;sensor_type;location;lat;lon;timestamp;temperature;humidity
4183;DHT22;2105;52.300;9.182;2023-01-19T00:02:12;1.90;99.90
4183;DHT22;2105;52.300;9.182;2023-01-19T00:04:39;1.90;99.90
4183;DHT22;2105;52.300;9.182;2023-01-19T00:07:07;1.90;99.90
4183;DHT22;2105;52.300;9.182;2023-01-19T00:09:34;1.90;99.90
4183;DHT22;2105;52.300;9.182;2023-01-19T00:12:03;1.90;1.00
4183;DHT22;2105;52.300;9.182;2023-01-19T00:14:30;1.90;1.00
4183;DHT22;2105;52.300;9.182;2023-01-19T00:16:56;1.90;1.00
4183;DHT22;2105;52.300;9.182;2023-01-19T00:19:23;2.00;1.00
4183;DHT22;2105;52.300;9.182;2023-01-19T00:21:50;2.00;1.00
4183;DHT22;2105;52.300;9.182;2023-01-19T00:24:18;1.90;1.00
4183;DHT22;2105;52.300;9.182;2023-01-19T00:26:45;2.00;1.00
4183;DHT22;2105;52.300;9.182;2023-01-19T00:29:12;2.00;1.00
4183;DHT22;2105;52.300;9.182;2023-01-19T00:31:40;2.00;1.00
4183;DHT22;2105;52.300;9.182;2023-01-19T00:34:07;2.00;1.00
4183;DHT22;2105;52.300;9.182;2023-01-19T00:36:33;2.10;1.00
4183;DHT22;2105;52.300;9.182;2023-01-19T00:39:00;2.10;1.00
4183;DHT22;2105;52.300;9.182;2023-01-19T00:41:28;2.10;1.00
4183;DHT22;2105;52.300;9.182;2023-01-19T00:44:09;2.10;1.00
4183;DHT22;2105;52.300;9.182;2023-01-19T00:46:36;2.10;1.00
4183;DHT22;2105;52.300;9.182;2023-01-19T00:49:02;2.20;1.00
4183;DHT22;2105;52.300;9.182;2023-01-19T00:51:29;2.10;1.00
4183;DHT22;2105;52.300;9.182;2023-01-19T00:53:56;2.20;1.00
4183;DHT22;2105;52.300;9.182;2023-01-19T00:56:24;2.10;1.00
4183;DHT22;2105;52.300;9.182;2023-01-19T00:58:52;2.10;1.00
4183;DHT22;2105;52.300;9.182;2023-01-19T01:01:19;2.10;1.00
4183;DHT22;2105;52.300;9.182;2023-01-19T01:03:46;2.20;1.00
4183;DHT22;2105;52.300;9.182;2023-01-19T01:06:12;2.10;1.00
4183;DHT22;2105;52.300;9.182;2023-01-19T01:08:39;2.10;1.00
4183;DHT22;2105;52.300;9.182;2023-01-19T01:11:06;2.00;1.00
4183;DHT22;2105;52.300;9.182;2023-01-19T01:13:32;2.00;31.50
4183;DHT22;2105;52.300;9.182;2023-01-19T01:16:00;2.00;72.60
4183;DHT22;2105;52.300;9.182;2023-01-19T01:18:27;2.00;99.90
4183;DHT22;2105;52.300;9.182;2023-01-19T01:20:59;2.00;99.90
4183;DHT22;2105;52.300;9.182;2023-01-19T01:23:26;2.00;99.90
4183;DHT22;2105;52.300;9.182;2023-01-19T01:25:53;2.00;99.90
4183;DHT22;2105;52.300;9.182;2023-01-19T01:28:19;2.10;99.90
4183;DHT22;2105;52.300;9.182;2023-01-19T01:30:46;2.10;99.90
4183;DHT22;2105;52.300;9.182;2023-01-19T01:33:14;2.10;99.90
4183;DHT22;2105;52.300;9.182;2023-01-19T01:35:40;2.10;99.90
4183;DHT22;2105;52.300;9.182;2023-01-19T01:38:08;2.10;99.90
4183;DHT22;2105;52.300;9.182;2023-01-19T01:40:38;2.00;99.90
4183;DHT22;2105;52.300;9.182;2023-01-19T01:43:09;2.00;99.90
4183;DHT22;2105;52.300;9.182;2023-01-19T01:45:38;2.10;99.90
4183;DHT22;2105;52.300;9.182;2023-01-19T01:48:08;2.10;99.90
4183;DHT22;2105;52.300;9.182;2023-01-19T01:50:40;2.10;99.90
4183;DHT22;2105;52.300;9.182;2023-01-19T01:53:28;2.00;99.90
4183;DHT22;2105;52.300;9.182;2023-01-19T01:55:55;2.10;99.90
4183;DHT22;2105;52.300;9.182;2023-01-19T01:58:22;2.00;99.90
4183;DHT22;2105;52.300;9.182;2023-01-19T02:00:49;2.10;99.90
4183;DHT22;2105;52.300;9.182;2023-01-19T02:03:33;2.00;99.90
4183;DHT22;2105;52.300;9.182;2023-01-19T02:06:03;2.00;1.00
4183;DHT22;2105;52.300;9.182;2023-01-19T02:08:34;2.00;1.00
4183;DHT22;2105;52.300;9.182;2023-01-19T02:11:20;2.00;1.00
4183;DHT22;2105;52.300;9.182;2023-01-19T02:14:05;2.00;1.00
4183;DHT22;2105;52.300;9.182;2023-01-19T02:16:32;2.00;1.00
4183;DHT22;2105;52.300;9.182;2023-01-19T02:18:59;2.00;1.00
4183;DHT22;2105;52.300;9.182;2023-01-19T02:21:32;2.10;1.00
4183;DHT22;2105;52.300;9.182;2023-01-19T02:24:03;2.10;1.00
4183;DHT22;2105;52.300;9.182;2023-01-19T02:26:33;2.10;1.00
4183;DHT22;2105;52.300;9.182;2023-01-19T02:29:02;2.10;1.00
4183;DHT22;2105;52.300;9.182;2023-01-19T02:31:31;2.10;1.00
4183;DHT22;2105;52.300;9.182;2023-01-19T02:33:59;2.10;1.00
4183;DHT22;2105;52.300;9.182;2023-01-19T02:36:30;2.10;1.00
4183;DHT22;2105;52.300;9.182;2023-01-19T02:38:59;2.10;1.00
4183;DHT22;2105;52.300;9.182;2023-01-19T02:41:31;2.10;1.00
4183;DHT22;2105;52.300;9.182;2023-01-19T02:44:00;2.20;1.00
4183;DHT22;2105;52.300;9.182;2023-01-19T02:46:27;2.20;1.00
4183;DHT22;2105;52.300;9.182;2023-01-19T02:48:57;2.20;1.00
4183;DHT22;2105;52.300;9.182;2023-01-19T02:51:24;2.30;1.00
4183;DHT22;2105;52.300;9.182;2023-01-19T02:54:07;2.30;1.00
4183;DHT22;2105;52.300;9.182;2023-01-19T02:56:51;2.30;1.00
4183;DHT22;2105;52.300;9.182;2023-01-19T02:59:27;2.30;1.00
4183;DHT22;2105;52.300;9.182;2023-01-19T03:02:13;2.30;1.00
4183;DHT22;2105;52.300;9.182;2023-01-19T03:04:55;2.30;1.00
4183;DHT22;2105;52.300;9.182;2023-01-19T03:07:33;2.30;1.00
4183;DHT22;2105;52.300;9.182;2023-01-19T03:10:06;2.30;1.00
4183;DHT22;2105;52.300;9.182;2023-01-19T03:12:39;2.30;1.00
4183;DHT22;2105;52.300;9.182;2023-01-19T03:15:14;2.40;1.00
4183;DHT22;2105;52.300;9.182;2023-01-19T03:17:44;2.30;1.00
4183;DHT22;2105;52.300;9.182;2023-01-19T03:20:16;2.40;1.00
4183;DHT22;2105;52.300;9.182;2023-01-19T03:22:45;2.40;1.00
4183;DHT22;2105;52.300;9.182;2023-01-19T03:25:15;2.40;1.00
4183;DHT22;2105;52.300;9.182;2023-01-19T03:27:45;2.40;1.00
4183;DHT22;2105;52.300;9.182;2023-01-19T03:30:15;2.40;1.00
4183;DHT22;2105;52.300;9.182;2023-01-19T03:32:47;2.40;1.00
4183;DHT22;2105;52.300;9.182;2023-01-19T03:35:16;2.40;1.00
4183;DHT22;2105;52.300;9.182;2023-01-19T03:37:47;2.50;1.00
4183;DHT22;2105;52.300;9.182;2023-01-19T03:40:16;2.50;1.00
4183;DHT22;2105;52.300;9.182;2023-01-19T06:50:48;2.90;99.90
4183;DHT22;2105;52.300;9.182;2023-01-19T07:03:38;2.80;1.00
4183;DHT22;2105;52.300;9.182;2023-01-19T07:57:49;2.70;99.90
4183;DHT22;2105;52.300;9.182;2023-01-19T08:03:37;2.50;99.90
4183;DHT22;2105;52.300;9.182;2023-01-19T08:06:06;2.40;99.90
4183;DHT22;2105;52.300;9.182;2023-01-19T08:08:33;2.40;99.90
4183;DHT22;2105;52.300;9.182;2023-01-19T08:11:02;2.40;1.00
4183;DHT22;2105;52.300;9.182;2023-01-19T08:13:30;2.30;1.00
4183;DHT22;2105;52.300;9.182;2023-01-19T08:15:59;2.30;1.00
4183;DHT22;2105;52.300;9.182;2023-01-19T08:18:25;2.30;2.90
4183;DHT22;2105;52.300;9.182;2023-01-19T08:20:57;2.30;94.20
4183;DHT22;2105;52.300;9.182;2023-01-19T08:23:24;2.30;99.90
4183;DHT22;2105;52.300;9.182;2023-01-19T08:26:25;2.20;99.90
4183;DHT22;2105;52.300;9.182;2023-01-19T08:29:02;2.20;99.90
4183;DHT22;2105;52.300;9.182;2023-01-19T08:31:49;2.20;99.90
4183;DHT22;2105;52.300;9.182;2023-01-19T08:37:07;2.20;99.90
4183;DHT22;2105;52.300;9.182;2023-01-19T08:37:50;2.20;99.90
4183;DHT22;2105;52.300;9.182;2023-01-19T08:41:13;2.10;99.90
4183;DHT22;2105;52.300;9.182;2023-01-19T08:43:31;2.20;99.90
4183;DHT22;2105;52.300;9.182;2023-01-19T08:46:03;2.20;99.90
4183;DHT22;2105;52.300;9.182;2023-01-19T08:48:33;2.10;99.90
4183;DHT22;2105;52.300;9.182;2023-01-19T08:50:59;2.10;99.90
4183;DHT22;2105;52.300;9.182;2023-01-19T08:53:26;2.10;99.90
4183;DHT22;2105;52.300;9.182;2023-01-19T08:55:57;2.10;99.90
4183;DHT22;2105;52.300;9.182;2023-01-19T08:58:27;2.20;99.90
4183;DHT22;2105;52.300;9.182;2023-01-19T09:00:54;2.20;99.90
4183;DHT22;2105;52.300;9.182;2023-01-19T09:03:22;2.40;99.90
4183;DHT22;2105;52.300;9.182;2023-01-19T09:05:49;2.30;99.90
4183;DHT22;2105;52.300;9.182;2023-01-19T09:08:18;2.30;99.90
4183;DHT22;2105;52.300;9.182;2023-01-19T09:11:02;2.30;99.90
4183;DHT22;2105;52.300;9.182;2023-01-19T09:13:32;2.30;99.90
4183;DHT22;2105;52.300;9.182;2023-01-19T09:16:01;2.20;99.90
4183;DHT22;2105;52.300;9.182;2023-01-19T09:18:57;2.30;99.90
4183;DHT22;2105;52.300;9.182;2023-01-19T09:22:40;2.20;99.90
4183;DHT22;2105;52.300;9.182;2023-01-19T09:25:02;2.30;99.90
4183;DHT22;2105;52.300;9.182;2023-01-19T09:27:42;2.30;99.90
4183;DHT22;2105;52.300;9.182;2023-01-19T09:32:40;2.30;99.90
4183;DHT22;2105;52.300;9.182;2023-01-19T09:34:01;2.30;99.90
4183;DHT22;2105;52.300;9.182;2023-01-19T09:36:38;2.30;99.90
4183;DHT22;2105;52.300;9.182;2023-01-19T09:39:05;2.30;99.90
4183;DHT22;2105;52.300;9.182;2023-01-19T09:41:44;2.30;99.90
4183;DHT22;2105;52.300;9.182;2023-01-19T09:44:15;2.30;99.90
4183;DHT22;2105;52.300;9.182;2023-01-19T09:46:42;2.30;99.90
4183;DHT22;2105;52.300;9.182;2023-01-19T09:49:14;2.30;99.90
4183;DHT22;2105;52.300;9.182;2023-01-19T09:51:44;2.30;99.90
4183;DHT22;2105;52.300;9.182;2023-01-19T09:54:13;2.30;99.90
4183;DHT22;2105;52.300;9.182;2023-01-19T09:56:41;2.40;99.90
4183;DHT22;2105;52.300;9.182;2023-01-19T09:59:20;2.40;99.90
4183;DHT22;2105;52.300;9.182;2023-01-19T10:01:59;2.40;99.90
4183;DHT22;2105;52.300;9.182;2023-01-19T10:04:34;2.40;99.90
4183;DHT22;2105;52.300;9.182;2023-01-19T10:07:20;2.50;99.90
4183;DHT22;2105;52.300;9.182;2023-01-19T10:10:01;2.50;99.90
4183;DHT22;2105;52.300;9.182;2023-01-19T10:12:38;2.50;99.90
4183;DHT22;2105;52.300;9.182;2023-01-19T10:15:17;2.50;99.90
4183;DHT22;2105;52.300;9.182;2023-01-19T10:17:55;2.50;99.90
4183;DHT22;2105;52.300;9.182;2023-01-19T10:20:30;2.60;99.90
4183;DHT22;2105;52.300;9.182;2023-01-19T10:22:59;2.60;99.90
4183;DHT22;2105;52.300;9.182;2023-01-19T10:25:27;2.60;99.90
4183;DHT22;2105;52.300;9.182;2023-01-19T10:27:54;2.60;99.90
4183;DHT22;2105;52.300;9.182;2023-01-19T10:30:23;2.60;99.90
4183;DHT22;2105;52.300;9.182;2023-01-19T10:32:51;2.60;99.90
4183;DHT22;2105;52.300;9.182;2023-01-19T10:35:20;2.60;99.90
4183;DHT22;2105;52.300;9.182;2023-01-19T10:37:52;2.60;99.90
4183;DHT22;2105;52.300;9.182;2023-01-19T10:40:26;2.60;99.90
4183;DHT22;2105;52.300;9.182;2023-01-19T10:42:55;2.70;99.90
4183;DHT22;2105;52.300;9.182;2023-01-19T10:45:23;2.70;99.90
4183;DHT22;2105;52.300;9.182;2023-01-19T10:47:51;2.70;99.90
4183;DHT22;2105;52.300;9.182;2023-01-19T10:50:23;2.70;99.90
4183;DHT22;2105;52.300;9.182;2023-01-19T10:52:53;2.70;99.90
4183;DHT22;2105;52.300;9.182;2023-01-19T10:55:25;2.80;99.90
4183;DHT22;2105;52.300;9.182;2023-01-19T10:57:52;2.80;99.90
4183;DHT22;2105;52.300;9.182;2023-01-19T11:00:30;2.80;99.90
4183;DHT22;2105;52.300;9.182;2023-01-19T11:02:56;2.80;99.90
4183;DHT22;2105;52.300;9.182;2023-01-19T11:05:25;2.80;99.90
4183;DHT22;2105;52.300;9.182;2023-01-19T11:07:53;2.80;99.90
4183;DHT22;2105;52.300;9.182;2023-01-19T11:10:22;2.90;99.90
4183;DHT22;2105;52.300;9.182;2023-01-19T11:13:01;2.90;99.90
4183;DHT22;2105;52.300;9.182;2023-01-19T11:15:33;2.90;99.90
4183;DHT22;2105;52.300;9.182;2023-01-19T11:18:02;2.90;99.90
4183;DHT22;2105;52.300;9.182;2023-01-19T11:20:38;2.80;99.90
4183;DHT22;2105;52.300;9.182;2023-01-19T11:23:18;2.70;99.90
4183;DHT22;2105;52.300;9.182;2023-01-19T11:25:48;2.60;99.90
4183;DHT22;2105;52.300;9.182;2023-01-19T11:28:17;2.60;99.90
4183;DHT22;2105;52.300;9.182;2023-01-19T11:30:54;2.60;99.90
4183;DHT22;2105;52.300;9.182;2023-01-19T11:33:24;2.60;99.90
4183;DHT22;2105;52.300;9.182;2023-01-19T11:36:02;2.60;99.90
4183;DHT22;2105;52.300;9.182;2023-01-19T11:38:31;2.60;99.90
4183;DHT22;2105;52.300;9.182;2023-01-19T11:41:00;2.60;99.90
4183;DHT22;2105;52.300;9.182;2023-01-19T11:43:30;2.60;99.90
4183;DHT22;2105;52.300;9.182;2023-01-19T11:45:58;2.60;99.90
4183;DHT22;2105;52.300;9.182;2023-01-19T11:48:28;2.70;99.90
4183;DHT22;2105;52.300;9.182;2023-01-19T11:50:56;2.70;99.90
4183;DHT22;2105;52.300;9.182;2023-01-19T11:53:26;2.70;99.90
4183;DHT22;2105;52.300;9.182;2023-01-19T11:55:58;2.60;99.90
4183;DHT22;2105;52.300;9.182;2023-01-19T11:58:27;2.60;99.90
4183;DHT22;2105;52.300;9.182;2023-01-19T12:00:59;2.60;99.90
4183;DHT22;2105;52.300;9.182;2023-01-19T12:03:30;2.60;99.90
4183;DHT22;2105;52.300;9.182;2023-01-19T12:06:00;2.60;99.90
4183;DHT22;2105;52.300;9.182;2023-01-19T12:08:32;2.60;99.90
4183;DHT22;2105;52.300;9.182;2023-01-19T12:11:02;2.60;99.90
4183;DHT22;2105;52.300;9.182;2023-01-19T12:13:30;2.70;99.90
4183;DHT22;2105;52.300;9.182;2023-01-19T12:15:59;2.70;99.90
4183;DHT22;2105;52.300;9.182;2023-01-19T12:18:32;2.70;99.90
4183;DHT22;2105;52.300;9.182;2023-01-19T12:20:59;2.80;99.90
4183;DHT22;2105;52.300;9.182;2023-01-19T12:23:38;2.80;99.90
4183;DHT22;2105;52.300;9.182;2023-01-19T12:26:27;2.80;99.90
4183;DHT22;2105;52.300;9.182;2023-01-19T12:28:57;2.90;99.90
4183;DHT22;2105;52.300;9.182;2023-01-19T12:31:26;2.90;99.90
4183;DHT22;2105;52.300;9.182;2023-01-19T12:33:53;2.90;99.90
4183;DHT22;2105;52.300;9.182;2023-01-19T12:36:37;3.00;99.90
4183;DHT22;2105;52.300;9.182;2023-01-19T12:39:17;3.00;99.90
4183;DHT22;2105;52.300;9.182;2023-01-19T12:41:46;3.00;99.90
4183;DHT22;2105;52.300;9.182;2023-01-19T12:44:19;3.10;99.90
4183;DHT22;2105;52.300;9.182;2023-01-19T12:46:48;3.10;99.90
4183;DHT22;2105;52.300;9.182;2023-01-19T12:49:25;3.10;99.90
4183;DHT22;2105;52.300;9.182;2023-01-19T12:51:54;3.20;99.90
4183;DHT22;2105;52.300;9.182;2023-01-19T12:54:35;3.30;99.90
4183;DHT22;2105;52.300;9.182;2023-01-19T12:57:08;3.30;99.90
4183;DHT22;2105;52.300;9.182;2023-01-19T12:59:39;3.30;99.90
4183;DHT22;2105;52.300;9.182;2023-01-19T13:02:29;3.40;99.90
4183;DHT22;2105;52.300;9.182;2023-01-19T13:08:17;3.50;99.90
4183;DHT22;2105;52.300;9.182;2023-01-19T13:17:02;3.60;99.90
4183;DHT22;2105;52.300;9.182;2023-01-19T13:19:36;3.70;99.90
4183;DHT22;2105;52.300;9.182;2023-01-19T13:25:04;4.30;99.90
4183;DHT22;2105;52.300;9.182;2023-01-19T13:27:33;4.60;99.90
4183;DHT22;2105;52.300;9.182;2023-01-19T13:30:09;5.00;99.90
4183;DHT22;2105;52.300;9.182;2023-01-19T13:32:39;5.20;99.90
4183;DHT22;2105;52.300;9.182;2023-01-19T13:35:12;5.30;99.90
4183;DHT22;2105;52.300;9.182;2023-01-19T13:37:42;5.60;99.90
4183;DHT22;2105;52.300;9.182;2023-01-19T13:40:16;5.60;99.90
4183;DHT22;2105;52.300;9.182;2023-01-19T13:42:44;5.70;83.70
4183;DHT22;2105;52.300;9.182;2023-01-19T13:45:29;5.60;1.00
4183;DHT22;2105;52.300;9.182;2023-01-19T13:47:59;5.40;1.00
4183;DHT22;2105;52.300;9.182;2023-01-19T13:50:28;5.30;1.00
4183;DHT22;2105;52.300;9.182;2023-01-19T13:52:56;5.20;1.00
4183;DHT22;2105;52.300;9.182;2023-01-19T13:55:25;5.10;1.00
4183;DHT22;2105;52.300;9.182;2023-01-19T13:57:52;4.90;1.00
4183;DHT22;2105;52.300;9.182;2023-01-19T14:00:23;4.80;13.10
4183;DHT22;2105;52.300;9.182;2023-01-19T14:02:53;4.70;53.20
4183;DHT22;2105;52.300;9.182;2023-01-19T14:05:22;4.50;99.90
4183;DHT22;2105;52.300;9.182;2023-01-19T14:07:59;4.40;99.90
4183;DHT22;2105;52.300;9.182;2023-01-19T14:10:27;4.40;99.90
4183;DHT22;2105;52.300;9.182;2023-01-19T14:13:00;4.40;99.90
4183;DHT22;2105;52.300;9.182;2023-01-19T14:15:30;4.40;99.90
4183;DHT22;2105;52.300;9.182;2023-01-19T14:18:21;4.30;99.90
4183;DHT22;2105;52.300;9.182;2023-01-19T14:20:54;4.30;99.90
4183;DHT22;2105;52.300;9.182;2023-01-19T14:23:41;4.20;99.90
4183;DHT22;2105;52.300;9.182;2023-01-19T14:26:40;4.10;99.90
4183;DHT22;2105;52.300;9.182;2023-01-19T14:29:18;4.00;99.90
4183;DHT22;2105;52.300;9.182;2023-01-19T14:31:49;4.10;99.90
4183;DHT22;2105;52.300;9.182;2023-01-19T14:34:35;4.00;99.90
4183;DHT22;2105;52.300;9.182;2023-01-19T14:37:10;4.00;99.90
4183;DHT22;2105;52.300;9.182;2023-01-19T14:39:43;3.90;99.90
4183;DHT22;2105;52.300;9.182;2023-01-19T14:42:14;4.00;99.90
4183;DHT22;2105;52.300;9.182;2023-01-19T14:44:45;4.00;99.90
4183;DHT22;2105;52.300;9.182;2023-01-19T14:47:31;4.00;99.90
4183;DHT22;2105;52.300;9.182;2023-01-19T14:50:04;4.00;99.90
4183;DHT22;2105;52.300;9.182;2023-01-19T14:52:34;3.90;99.90
4183;DHT22;2105;52.300;9.182;2023-01-19T14:55:03;3.90;99.90
4183;DHT22;2105;52.300;9.182;2023-01-19T14:57:33;3.90;99.90
4183;DHT22;2105;52.300;9.182;2023-01-19T15:00:04;3.90;99.90
4183;DHT22;2105;52.300;9.182;2023-01-19T15:02:33;3.90;99.90
4183;DHT22;2105;52.300;9.182;2023-01-19T15:04:59;3.80;99.90
4183;DHT22;2105;52.300;9.182;2023-01-19T15:07:27;3.70;99.90
4183;DHT22;2105;52.300;9.182;2023-01-19T15:09:54;3.70;99.90
4183;DHT22;2105;52.300;9.182;2023-01-19T15:12:21;3.70;99.90
4183;DHT22;2105;52.300;9.182;2023-01-19T15:14:49;3.60;99.90
4183;DHT22;2105;52.300;9.182;2023-01-19T15:17:18;3.50;99.90
4183;DHT22;2105;52.300;9.182;2023-01-19T15:19:51;3.50;99.90
4183;DHT22;2105;52.300;9.182;2023-01-19T15:22:18;3.40;99.90
4183;DHT22;2105;52.300;9.182;2023-01-19T15:24:46;3.40;99.90
4183;DHT22;2105;52.300;9.182;2023-01-19T15:27:13;3.30;99.90
4183;DHT22;2105;52.300;9.182;2023-01-19T15:29:40;3.30;99.90
4183;DHT22;2105;52.300;9.182;2023-01-19T15:32:10;3.20;99.90
4183;DHT22;2105;52.300;9.182;2023-01-19T15:34:37;3.10;99.90
4183;DHT22;2105;52.300;9.182;2023-01-19T15:37:06;3.10;99.90
4183;DHT22;2105;52.300;9.182;2023-01-19T15:39:32;3.10;99.90
4183;DHT22;2105;52.300;9.182;2023-01-19T15:41:59;3.00;99.90
4183;DHT22;2105;52.300;9.182;2023-01-19T15:44:26;3.00;99.90
4183;DHT22;2105;52.300;9.182;2023-01-19T15:46:53;2.90;99.90
4183;DHT22;2105;52.300;9.182;2023-01-19T15:49:21;2.90;99.90
4183;DHT22;2105;52.300;9.182;2023-01-19T15:51:47;2.80;99.90
4183;DHT22;2105;52.300;9.182;2023-01-19T15:54:16;2.80;99.90
4183;DHT22;2105;52.300;9.182;2023-01-19T15:56:43;2.80;99.90
4183;DHT22;2105;52.300;9.182;2023-01-19T15:59:10;2.80;99.90
4183;DHT22;2105;52.300;9.182;2023-01-19T16:01:37;2.70;99.90
4183;DHT22;2105;52.300;9.182;2023-01-19T16:04:06;2.70;99.90
4183;DHT22;2105;52.300;9.182;2023-01-19T16:06:33;2.70;99.90
4183;DHT22;2105;52.300;9.182;2023-01-19T16:09:00;2.70;99.90
4183;DHT22;2105;52.300;9.182;2023-01-19T16:11:30;2.70;99.90
4183;DHT22;2105;52.300;9.182;2023-01-19T16:14:12;2.60;99.90
4183;DHT22;2105;52.300;9.182;2023-01-19T16:16:39;2.60;99.90
4183;DHT22;2105;52.300;9.182;2023-01-19T16:19:07;2.60;99.90
4183;DHT22;2105;52.300;9.182;2023-01-19T16:21:34;2.60;99.90
4183;DHT22;2105;52.300;9.182;2023-01-19T16:24:00;2.60;99.90
4183;DHT22;2105;52.300;9.182;2023-01-19T16:26:32;2.50;99.90
4183;DHT22;2105;52.300;9.182;2023-01-19T16:29:00;2.50;99.90
4183;DHT22;2105;52.300;9.182;2023-01-19T16:31:27;2.50;99.90
4183;DHT22;2105;52.300;9.182;2023-01-19T16:33:54;2.50;99.90
4183;DHT22;2105;52.300;9.182;2023-01-19T16:36:23;2.50;99.90
4183;DHT22;2105;52.300;9.182;2023-01-19T16:38:51;2.50;99.90
4183;DHT22;2105;52.300;9.182;2023-01-19T16:41:18;2.50;99.90
4183;DHT22;2105;52.300;9.182;2023-01-19T16:43:50;2.40;99.90
4183;DHT22;2105;52.300;9.182;2023-01-19T16:46:20;2.40;99.90
4183;DHT22;2105;52.300;9.182;2023-01-19T16:48:47;2.40;99.90
4183;DHT22;2105;52.300;9.182;2023-01-19T16:51:13;2.40;99.90
4183;DHT22;2105;52.300;9.182;2023-01-19T16:53:40;2.40;99.90
4183;DHT22;2105;52.300;9.182;2023-01-19T16:56:08;2.40;99.90
4183;DHT22;2105;52.300;9.182;2023-01-19T16:58:35;2.40;99.90
4183;DHT22;2105;52.300;9.182;2023-01-19T17:01:08;2.30;99.90
4183;DHT22;2105;52.300;9.182;2023-01-19T17:03:35;2.30;99.90
4183;DHT22;2105;52.300;9.182;2023-01-19T17:06:03;2.30;99.90
4183;DHT22;2105;52.300;9.182;2023-01-19T17:08:30;2.30;99.90
4183;DHT22;2105;52.300;9.182;2023-01-19T17:10:56;2.40;99.90
4183;DHT22;2105;52.300;9.182;2023-01-19T17:13:27;2.30;99.90
4183;DHT22;2105;52.300;9.182;2023-01-19T17:15:58;2.30;99.90
4183;DHT22;2105;52.300;9.182;2023-01-19T17:18:26;2.30;99.90
4183;DHT22;2105;52.300;9.182;2023-01-19T17:20:52;2.30;99.90
4183;DHT22;2105;52.300;9.182;2023-01-19T17:23:19;2.30;99.90
4183;DHT22;2105;52.300;9.182;2023-01-19T17:25:51;2.20;99.90
4183;DHT22;2105;52.300;9.182;2023-01-19T17:28:17;2.20;99.90
4183;DHT22;2105;52.300;9.182;2023-01-19T17:30:44;2.20;99.90
4183;DHT22;2105;52.300;9.182;2023-01-19T17:33:11;2.20;99.90
4183;DHT22;2105;52.300;9.182;2023-01-19T17:35:39;2.20;99.90
4183;DHT22;2105;52.300;9.182;2023-01-19T17:38:06;2.20;99.90
4183;DHT22;2105;52.300;9.182;2023-01-19T17:40:32;2.20;99.90
4183;DHT22;2105;52.300;9.182;2023-01-19T17:42:59;2.20;99.90
4183;DHT22;2105;52.300;9.182;2023-01-19T17:45:26;2.20;99.90
4183;DHT22;2105;52.300;9.182;2023-01-19T17:50:20;2.20;99.90
4183;DHT22;2105;52.300;9.182;2023-01-19T17:52:48;2.20;99.90
4183;DHT22;2105;52.300;9.182;2023-01-19T17:55:15;2.20;99.90
4183;DHT22;2105;52.300;9.182;2023-01-19T17:57:52;2.20;99.90
4183;DHT22;2105;52.300;9.182;2023-01-19T18:00:31;2.10;99.90
4183;DHT22;2105;52.300;9.182;2023-01-19T18:03:04;2.10;99.90
4183;DHT22;2105;52.300;9.182;2023-01-19T18:05:31;2.10;99.90
4183;DHT22;2105;52.300;9.182;2023-01-19T18:07:59;2.10;99.90
4183;DHT22;2105;52.300;9.182;2023-01-19T18:10:25;2.10;99.90
4183;DHT22;2105;52.300;9.182;2023-01-19T18:12:52;2.10;99.90
4183;DHT22;2105;52.300;9.182;2023-01-19T18:15:19;2.10;99.90
4183;DHT22;2105;52.300;9.182;2023-01-19T18:17:45;2.00;99.90
4183;DHT22;2105;52.300;9.182;2023-01-19T18:20:12;2.00;99.90
4183;DHT22;2105;52.300;9.182;2023-01-19T18:22:39;2.00;99.90
4183;DHT22;2105;52.300;9.182;2023-01-19T18:25:07;2.00;99.90
4183;DHT22;2105;52.300;9.182;2023-01-19T18:27:34;2.00;99.90
4183;DHT22;2105;52.300;9.182;2023-01-19T18:30:00;2.00;99.90
4183;DHT22;2105;52.300;9.182;2023-01-19T18:32:27;2.00;99.90
4183;DHT22;2105;52.300;9.182;2023-01-19T18:34:54;2.00;99.90
4183;DHT22;2105;52.300;9.182;2023-01-19T18:37:22;2.00;99.90
4183;DHT22;2105;52.300;9.182;2023-01-19T18:39:48;2.00;99.90
4183;DHT22;2105;52.300;9.182;2023-01-19T18:42:16;2.00;99.90
4183;DHT22;2105;52.300;9.182;2023-01-19T18:44:43;2.00;99.90
4183;DHT22;2105;52.300;9.182;2023-01-19T18:47:09;2.00;99.90
4183;DHT22;2105;52.300;9.182;2023-01-19T18:49:36;2.00;99.90
4183;DHT22;2105;52.300;9.182;2023-01-19T18:52:03;2.00;99.90
4183;DHT22;2105;52.300;9.182;2023-01-19T18:54:30;2.00;99.90
4183;DHT22;2105;52.300;9.182;2023-01-19T18:56:56;2.00;99.90
4183;DHT22;2105;52.300;9.182;2023-01-19T18:59:24;2.00;99.90
4183;DHT22;2105;52.300;9.182;2023-01-19T19:01:51;1.90;99.90
4183;DHT22;2105;52.300;9.182;2023-01-19T19:04:17;2.00;99.90
4183;DHT22;2105;52.300;9.182;2023-01-19T19:06:44;2.00;99.90
4183;DHT22;2105;52.300;9.182;2023-01-19T19:09:11;2.00;99.90
4183;DHT22;2105;52.300;9.182;2023-01-19T19:11:37;2.10;99.90
4183;DHT22;2105;52.300;9.182;2023-01-19T19:14:05;2.10;99.90
4183;DHT22;2105;52.300;9.182;2023-01-19T19:16:33;2.10;99.90
4183;DHT22;2105;52.300;9.182;2023-01-19T19:18:59;2.10;99.90
4183;DHT22;2105;52.300;9.182;2023-01-19T19:21:26;2.10;99.90
4183;DHT22;2105;52.300;9.182;2023-01-19T19:23:54;2.10;99.90
4183;DHT22;2105;52.300;9.182;2023-01-19T19:26:21;2.10;99.90
4183;DHT22;2105;52.300;9.182;2023-01-19T19:28:48;2.10;99.90
4183;DHT22;2105;52.300;9.182;2023-01-19T19:31:16;2.10;99.90
4183;DHT22;2105;52.300;9.182;2023-01-19T19:33:46;2.10;99.90
4183;DHT22;2105;52.300;9.182;2023-01-19T19:36:15;2.10;99.90
4183;DHT22;2105;52.300;9.182;2023-01-19T19:38:42;2.20;99.90
4183;DHT22;2105;52.300;9.182;2023-01-19T19:41:13;2.20;99.90
4183;DHT22;2105;52.300;9.182;2023-01-19T19:43:40;2.20;99.90
4183;DHT22;2105;52.300;9.182;2023-01-19T19:46:09;2.20;99.90
4183;DHT22;2105;52.300;9.182;2023-01-19T19:48:37;2.30;99.90
4183;DHT22;2105;52.300;9.182;2023-01-19T19:51:06;2.30;99.90
4183;DHT22;2105;52.300;9.182;2023-01-19T19:53:33;2.30;99.90
4183;DHT22;2105;52.300;9.182;2023-01-19T19:56:03;2.30;99.90
4183;DHT22;2105;52.300;9.182;2023-01-19T19:58:30;2.40;99.90
4183;DHT22;2105;52.300;9.182;2023-01-19T20:00:57;2.40;99.90
4183;DHT22;2105;52.300;9.182;2023-01-19T20:03:27;2.40;99.90
4183;DHT22;2105;52.300;9.182;2023-01-19T20:05:54;2.40;99.90
4183;DHT22;2105;52.300;9.182;2023-01-19T20:08:22;2.40;99.90
4183;DHT22;2105;52.300;9.182;2023-01-19T20:10:48;2.40;99.90
4183;DHT22;2105;52.300;9.182;2023-01-19T20:13:15;2.40;99.90
4183;DHT22;2105;52.300;9.182;2023-01-19T20:15:43;2.40;99.90
4183;DHT22;2105;52.300;9.182;2023-01-19T20:18:10;2.40;99.90
4183;DHT22;2105;52.300;9.182;2023-01-19T20:20:36;2.40;99.90
4183;DHT22;2105;52.300;9.182;2023-01-19T20:23:03;2.40;99.90
4183;DHT22;2105;52.300;9.182;2023-01-19T20:25:31;2.30;99.90
4183;DHT22;2105;52.300;9.182;2023-01-19T20:27:58;2.30;99.90
4183;DHT22;2105;52.300;9.182;2023-01-19T20:30:24;2.30;99.90
4183;DHT22;2105;52.300;9.182;2023-01-19T20:32:52;2.30;99.90
4183;DHT22;2105;52.300;9.182;2023-01-19T20:35:19;2.20;99.90
4183;DHT22;2105;52.300;9.182;2023-01-19T20:37:45;2.20;99.90
4183;DHT22;2105;52.300;9.182;2023-01-19T20:40:12;2.10;99.90
4183;DHT22;2105;52.300;9.182;2023-01-19T20:42:40;2.10;99.90
4183;DHT22;2105;52.300;9.182;2023-01-19T20:45:08;2.10;99.90
4183;DHT22;2105;52.300;9.182;2023-01-19T20:47:34;2.10;99.90
4183;DHT22;2105;52.300;9.182;2023-01-19T20:50:01;2.00;99.90
4183;DHT22;2105;52.300;9.182;2023-01-19T20:52:27;2.00;99.90
4183;DHT22;2105;52.300;9.182;2023-01-19T20:54:54;2.00;99.90
4183;DHT22;2105;52.300;9.182;2023-01-19T20:57:21;2.00;99.90
4183;DHT22;2105;52.300;9.182;2023-01-19T20:59:49;2.00;99.90
4183;DHT22;2105;52.300;9.182;2023-01-19T21:02:16;1.90;99.90
4183;DHT22;2105;52.300;9.182;2023-01-19T21:04:42;1.90;99.90
4183;DHT22;2105;52.300;9.182;2023-01-19T21:07:09;1.90;99.90
4183;DHT22;2105;52.300;9.182;2023-01-19T21:09:36;1.90;99.90
4183;DHT22;2105;52.300;9.182;2023-01-19T21:12:04;1.90;99.90
4183;DHT22;2105;52.300;9.182;2023-01-19T21:14:32;1.90;99.90